Airport View

Enter AWOS ICAO identifier for current METAR.

ex. KFNL

KICL 170955Z AUTO 00000KT 10SM CLR 02/M01 A2996 RMK AO2

17 Nov 2019 09:58

Frequency: 132.025

Phone: 712-542-3345

Other Area AWOS: KSDA - KRDK - KCSQ - KAFK

TAF KOFF 170200Z 1702/1808 15012KT 9999 BKN200 QNH2999INS BECMG 1705/1706 VRB06KT 9999 BKN080 QNH2997INS TEMPO 1707/1709 9000 -SHRA BECMG 1708/1709 VRB06KT 9999 BKN040 OVC200 WS015/35040KT QNH2997INS BECMG 1714/1715 33015G20KT 9999 SCT040 QNH3000INS BECMG 1722/1723 VRB06KT 9999 FEW250 QNH2996INS TX13/1802Z TN03/1713Z